sensor_id;sensor_type;location;lat;lon;timestamp;P1;durP1;ratioP1;P2;durP2;ratioP2
64188;SDS011;50493;50.970;10.082;2022-09-03T00:01:47;3.28;;;2.38;;
64188;SDS011;50493;50.970;10.082;2022-09-03T00:04:18;2.60;;;1.98;;
64188;SDS011;50493;50.970;10.082;2022-09-03T00:06:51;2.42;;;1.90;;
64188;SDS011;50493;50.970;10.082;2022-09-03T00:09:24;3.15;;;2.10;;
64188;SDS011;50493;50.970;10.082;2022-09-03T00:11:57;2.92;;;2.25;;
64188;SDS011;50493;50.970;10.082;2022-09-03T00:14:27;3.58;;;2.03;;
64188;SDS011;50493;50.970;10.082;2022-09-03T00:17:01;3.60;;;2.47;;
64188;SDS011;50493;50.970;10.082;2022-09-03T00:19:30;2.95;;;2.10;;
64188;SDS011;50493;50.970;10.082;2022-09-03T00:22:01;3.25;;;2.20;;
64188;SDS011;50493;50.970;10.082;2022-09-03T00:24:34;3.53;;;2.10;;
64188;SDS011;50493;50.970;10.082;2022-09-03T00:27:05;3.17;;;2.40;;
64188;SDS011;50493;50.970;10.082;2022-09-03T00:29:40;2.65;;;2.10;;
64188;SDS011;50493;50.970;10.082;2022-09-03T00:32:12;3.00;;;1.90;;
64188;SDS011;50493;50.970;10.082;2022-09-03T00:34:41;2.85;;;2.38;;
64188;SDS011;50493;50.970;10.082;2022-09-03T00:37:12;3.58;;;2.50;;
64188;SDS011;50493;50.970;10.082;2022-09-03T00:39:37;2.63;;;2.00;;
64188;SDS011;50493;50.970;10.082;2022-09-03T00:42:13;3.65;;;2.20;;
64188;SDS011;50493;50.970;10.082;2022-09-03T00:45:11;3.58;;;2.50;;
64188;SDS011;50493;50.970;10.082;2022-09-03T00:47:49;3.20;;;2.40;;
64188;SDS011;50493;50.970;10.082;2022-09-03T00:50:26;2.58;;;2.22;;
64188;SDS011;50493;50.970;10.082;2022-09-03T00:53:05;3.60;;;2.58;;
64188;SDS011;50493;50.970;10.082;2022-09-03T00:55:38;4.45;;;2.20;;
64188;SDS011;50493;50.970;10.082;2022-09-03T00:58:19;3.15;;;2.40;;
64188;SDS011;50493;50.970;10.082;2022-09-03T01:00:56;3.00;;;2.50;;
64188;SDS011;50493;50.970;10.082;2022-09-03T01:03:24;3.38;;;2.50;;
64188;SDS011;50493;50.970;10.082;2022-09-03T01:06:04;2.67;;;2.20;;
64188;SDS011;50493;50.970;10.082;2022-09-03T01:08:49;2.92;;;2.40;;
64188;SDS011;50493;50.970;10.082;2022-09-03T01:11:25;3.20;;;2.30;;
64188;SDS011;50493;50.970;10.082;2022-09-03T01:14:05;3.35;;;2.35;;
64188;SDS011;50493;50.970;10.082;2022-09-03T01:16:37;3.50;;;2.20;;
64188;SDS011;50493;50.970;10.082;2022-09-03T01:19:15;2.65;;;2.28;;
64188;SDS011;50493;50.970;10.082;2022-09-03T01:22:04;3.15;;;2.40;;
64188;SDS011;50493;50.970;10.082;2022-09-03T01:24:49;2.40;;;2.00;;
64188;SDS011;50493;50.970;10.082;2022-09-03T01:27:31;2.90;;;2.25;;
64188;SDS011;50493;50.970;10.082;2022-09-03T01:30:10;3.60;;;2.10;;
64188;SDS011;50493;50.970;10.082;2022-09-03T01:32:42;3.60;;;2.50;;
64188;SDS011;50493;50.970;10.082;2022-09-03T01:35:16;2.88;;;2.42;;
64188;SDS011;50493;50.970;10.082;2022-09-03T01:37:52;4.20;;;2.70;;
64188;SDS011;50493;50.970;10.082;2022-09-03T01:40:30;3.80;;;2.58;;
64188;SDS011;50493;50.970;10.082;2022-09-03T01:43:05;3.13;;;2.60;;
64188;SDS011;50493;50.970;10.082;2022-09-03T01:45:47;3.88;;;2.40;;
64188;SDS011;50493;50.970;10.082;2022-09-03T01:48:39;3.58;;;2.42;;
64188;SDS011;50493;50.970;10.082;2022-09-03T01:51:10;3.70;;;2.40;;
64188;SDS011;50493;50.970;10.082;2022-09-03T01:53:57;4.18;;;2.30;;
64188;SDS011;50493;50.970;10.082;2022-09-03T01:59:06;3.83;;;2.53;;
64188;SDS011;50493;50.970;10.082;2022-09-03T02:01:42;3.15;;;2.65;;
64188;SDS011;50493;50.970;10.082;2022-09-03T02:04:14;2.83;;;2.20;;
64188;SDS011;50493;50.970;10.082;2022-09-03T02:06:42;2.95;;;2.28;;
64188;SDS011;50493;50.970;10.082;2022-09-03T02:09:09;3.35;;;2.60;;
64188;SDS011;50493;50.970;10.082;2022-09-03T02:11:34;3.00;;;2.20;;
64188;SDS011;50493;50.970;10.082;2022-09-03T02:14:01;6.72;;;2.40;;
64188;SDS011;50493;50.970;10.082;2022-09-03T02:16:30;3.85;;;2.42;;
64188;SDS011;50493;50.970;10.082;2022-09-03T02:18:59;3.35;;;2.03;;
64188;SDS011;50493;50.970;10.082;2022-09-03T02:21:29;3.38;;;2.10;;
64188;SDS011;50493;50.970;10.082;2022-09-03T02:23:58;2.97;;;2.33;;
64188;SDS011;50493;50.970;10.082;2022-09-03T02:26:25;3.13;;;2.33;;
64188;SDS011;50493;50.970;10.082;2022-09-03T02:28:51;3.22;;;2.20;;
64188;SDS011;50493;50.970;10.082;2022-09-03T02:31:18;3.35;;;2.30;;
64188;SDS011;50493;50.970;10.082;2022-09-03T02:33:45;3.65;;;2.40;;
64188;SDS011;50493;50.970;10.082;2022-09-03T02:36:14;3.63;;;2.17;;
64188;SDS011;50493;50.970;10.082;2022-09-03T02:38:44;3.10;;;2.40;;
64188;SDS011;50493;50.970;10.082;2022-09-03T02:41:10;3.42;;;2.50;;
64188;SDS011;50493;50.970;10.082;2022-09-03T02:43:38;3.42;;;2.67;;
64188;SDS011;50493;50.970;10.082;2022-09-03T02:46:07;3.70;;;2.70;;
64188;SDS011;50493;50.970;10.082;2022-09-03T02:48:38;3.15;;;2.10;;
64188;SDS011;50493;50.970;10.082;2022-09-03T02:51:04;2.90;;;2.50;;
64188;SDS011;50493;50.970;10.082;2022-09-03T02:53:30;3.30;;;2.40;;
64188;SDS011;50493;50.970;10.082;2022-09-03T02:55:58;3.15;;;2.60;;
64188;SDS011;50493;50.970;10.082;2022-09-03T02:58:24;3.13;;;2.20;;
64188;SDS011;50493;50.970;10.082;2022-09-03T03:00:50;2.95;;;2.40;;
64188;SDS011;50493;50.970;10.082;2022-09-03T03:03:16;3.33;;;2.30;;
64188;SDS011;50493;50.970;10.082;2022-09-03T03:05:42;4.53;;;2.50;;
64188;SDS011;50493;50.970;10.082;2022-09-03T03:08:11;3.03;;;2.55;;
64188;SDS011;50493;50.970;10.082;2022-09-03T03:10:40;4.00;;;2.45;;
64188;SDS011;50493;50.970;10.082;2022-09-03T03:13:06;3.45;;;2.60;;
64188;SDS011;50493;50.970;10.082;2022-09-03T03:15:32;3.00;;;2.40;;
64188;SDS011;50493;50.970;10.082;2022-09-03T03:17:57;3.80;;;2.35;;
64188;SDS011;50493;50.970;10.082;2022-09-03T03:20:23;3.83;;;2.30;;
64188;SDS011;50493;50.970;10.082;2022-09-03T03:22:48;3.08;;;2.38;;
64188;SDS011;50493;50.970;10.082;2022-09-03T03:25:14;3.72;;;2.65;;
64188;SDS011;50493;50.970;10.082;2022-09-03T03:27:41;2.92;;;2.47;;
64188;SDS011;50493;50.970;10.082;2022-09-03T03:30:07;2.92;;;2.33;;
64188;SDS011;50493;50.970;10.082;2022-09-03T03:32:34;2.95;;;2.33;;
64188;SDS011;50493;50.970;10.082;2022-09-03T03:34:59;3.28;;;2.40;;
64188;SDS011;50493;50.970;10.082;2022-09-03T03:37:25;3.25;;;2.40;;
64188;SDS011;50493;50.970;10.082;2022-09-03T03:39:50;3.55;;;2.45;;
64188;SDS011;50493;50.970;10.082;2022-09-03T03:42:16;3.70;;;2.22;;
64188;SDS011;50493;50.970;10.082;2022-09-03T03:44:42;3.15;;;2.40;;
64188;SDS011;50493;50.970;10.082;2022-09-03T03:47:08;3.08;;;2.47;;
64188;SDS011;50493;50.970;10.082;2022-09-03T03:49:33;3.22;;;2.35;;
64188;SDS011;50493;50.970;10.082;2022-09-03T03:51:59;3.20;;;2.40;;
64188;SDS011;50493;50.970;10.082;2022-09-03T03:54:24;3.47;;;2.40;;
64188;SDS011;50493;50.970;10.082;2022-09-03T03:56:49;3.28;;;2.35;;
64188;SDS011;50493;50.970;10.082;2022-09-03T03:59:15;3.30;;;2.60;;
64188;SDS011;50493;50.970;10.082;2022-09-03T04:01:41;2.97;;;2.50;;
64188;SDS011;50493;50.970;10.082;2022-09-03T04:04:07;3.33;;;2.72;;
64188;SDS011;50493;50.970;10.082;2022-09-03T04:06:32;4.90;;;2.55;;
64188;SDS011;50493;50.970;10.082;2022-09-03T04:08:57;2.90;;;2.30;;
64188;SDS011;50493;50.970;10.082;2022-09-03T04:11:23;4.15;;;2.60;;
64188;SDS011;50493;50.970;10.082;2022-09-03T04:13:49;2.70;;;2.25;;
64188;SDS011;50493;50.970;10.082;2022-09-03T04:16:16;3.53;;;2.50;;
64188;SDS011;50493;50.970;10.082;2022-09-03T04:18:44;2.88;;;2.33;;
64188;SDS011;50493;50.970;10.082;2022-09-03T04:21:10;3.22;;;2.50;;
64188;SDS011;50493;50.970;10.082;2022-09-03T04:23:38;3.28;;;2.50;;
64188;SDS011;50493;50.970;10.082;2022-09-03T04:26:05;3.45;;;2.60;;
64188;SDS011;50493;50.970;10.082;2022-09-03T04:28:32;2.90;;;2.42;;
64188;SDS011;50493;50.970;10.082;2022-09-03T04:30:59;4.13;;;2.40;;
64188;SDS011;50493;50.970;10.082;2022-09-03T04:33:26;3.22;;;2.55;;
64188;SDS011;50493;50.970;10.082;2022-09-03T04:35:52;3.03;;;2.42;;
64188;SDS011;50493;50.970;10.082;2022-09-03T04:38:27;3.10;;;2.50;;
64188;SDS011;50493;50.970;10.082;2022-09-03T04:40:53;3.45;;;2.30;;
64188;SDS011;50493;50.970;10.082;2022-09-03T04:43:18;3.58;;;2.40;;
64188;SDS011;50493;50.970;10.082;2022-09-03T04:45:44;2.97;;;2.35;;
64188;SDS011;50493;50.970;10.082;2022-09-03T04:48:09;3.15;;;2.42;;
64188;SDS011;50493;50.970;10.082;2022-09-03T04:50:35;3.78;;;2.42;;
64188;SDS011;50493;50.970;10.082;2022-09-03T04:55:32;4.13;;;2.45;;
64188;SDS011;50493;50.970;10.082;2022-09-03T04:57:58;3.42;;;2.75;;
64188;SDS011;50493;50.970;10.082;2022-09-03T05:00:23;3.97;;;2.40;;
64188;SDS011;50493;50.970;10.082;2022-09-03T05:02:49;4.78;;;2.50;;
64188;SDS011;50493;50.970;10.082;2022-09-03T05:05:16;2.88;;;2.30;;
64188;SDS011;50493;50.970;10.082;2022-09-03T05:07:41;2.80;;;2.35;;
64188;SDS011;50493;50.970;10.082;2022-09-03T05:10:09;3.90;;;2.22;;
64188;SDS011;50493;50.970;10.082;2022-09-03T05:12:37;4.68;;;2.75;;
64188;SDS011;50493;50.970;10.082;2022-09-03T05:15:03;3.75;;;2.60;;
64188;SDS011;50493;50.970;10.082;2022-09-03T05:17:29;3.08;;;2.42;;
64188;SDS011;50493;50.970;10.082;2022-09-03T05:19:54;2.80;;;2.10;;
64188;SDS011;50493;50.970;10.082;2022-09-03T05:22:21;2.97;;;2.20;;
64188;SDS011;50493;50.970;10.082;2022-09-03T05:24:46;3.88;;;2.40;;
64188;SDS011;50493;50.970;10.082;2022-09-03T05:27:16;3.00;;;2.47;;
64188;SDS011;50493;50.970;10.082;2022-09-03T05:29:42;4.00;;;3.15;;
64188;SDS011;50493;50.970;10.082;2022-09-03T05:32:08;4.75;;;2.85;;
64188;SDS011;50493;50.970;10.082;2022-09-03T05:34:34;3.10;;;2.50;;
64188;SDS011;50493;50.970;10.082;2022-09-03T05:36:59;4.90;;;2.42;;
64188;SDS011;50493;50.970;10.082;2022-09-03T05:39:24;6.68;;;2.88;;
64188;SDS011;50493;50.970;10.082;2022-09-03T05:41:50;2.88;;;2.40;;
64188;SDS011;50493;50.970;10.082;2022-09-03T05:44:17;2.88;;;2.03;;
64188;SDS011;50493;50.970;10.082;2022-09-03T05:46:43;4.28;;;2.60;;
64188;SDS011;50493;50.970;10.082;2022-09-03T05:49:08;2.90;;;2.47;;
64188;SDS011;50493;50.970;10.082;2022-09-03T05:51:35;3.42;;;2.30;;
64188;SDS011;50493;50.970;10.082;2022-09-03T05:54:03;2.67;;;2.20;;
64188;SDS011;50493;50.970;10.082;2022-09-03T05:56:29;3.05;;;2.35;;
64188;SDS011;50493;50.970;10.082;2022-09-03T05:58:56;2.35;;;2.15;;
64188;SDS011;50493;50.970;10.082;2022-09-03T06:01:27;3.42;;;2.50;;
64188;SDS011;50493;50.970;10.082;2022-09-03T06:03:55;3.50;;;2.10;;
64188;SDS011;50493;50.970;10.082;2022-09-03T06:06:22;4.22;;;2.30;;
64188;SDS011;50493;50.970;10.082;2022-09-03T06:08:49;4.80;;;2.10;;
64188;SDS011;50493;50.970;10.082;2022-09-03T06:11:15;5.70;;;2.60;;
64188;SDS011;50493;50.970;10.082;2022-09-03T06:13:41;4.93;;;2.55;;
64188;SDS011;50493;50.970;10.082;2022-09-03T06:16:06;3.90;;;2.67;;
64188;SDS011;50493;50.970;10.082;2022-09-03T06:18:34;3.25;;;2.50;;
64188;SDS011;50493;50.970;10.082;2022-09-03T06:21:00;8.32;;;2.33;;
64188;SDS011;50493;50.970;10.082;2022-09-03T06:23:27;5.07;;;2.50;;
64188;SDS011;50493;50.970;10.082;2022-09-03T06:26:01;4.75;;;2.10;;
64188;SDS011;50493;50.970;10.082;2022-09-03T06:28:27;4.20;;;2.40;;
64188;SDS011;50493;50.970;10.082;2022-09-03T06:30:56;5.25;;;2.55;;
64188;SDS011;50493;50.970;10.082;2022-09-03T06:33:22;3.67;;;2.38;;
64188;SDS011;50493;50.970;10.082;2022-09-03T06:35:52;4.22;;;2.42;;
64188;SDS011;50493;50.970;10.082;2022-09-03T06:38:21;3.80;;;2.53;;
64188;SDS011;50493;50.970;10.082;2022-09-03T06:40:50;2.92;;;2.33;;
64188;SDS011;50493;50.970;10.082;2022-09-03T06:43:16;2.97;;;2.13;;
64188;SDS011;50493;50.970;10.082;2022-09-03T06:45:41;4.20;;;2.20;;
64188;SDS011;50493;50.970;10.082;2022-09-03T06:48:07;3.08;;;2.40;;
64188;SDS011;50493;50.970;10.082;2022-09-03T06:50:32;5.50;;;2.40;;
64188;SDS011;50493;50.970;10.082;2022-09-03T06:52:59;5.63;;;2.30;;
64188;SDS011;50493;50.970;10.082;2022-09-03T06:55:24;3.70;;;2.17;;
64188;SDS011;50493;50.970;10.082;2022-09-03T06:57:49;4.53;;;2.00;;
64188;SDS011;50493;50.970;10.082;2022-09-03T07:00:21;2.67;;;2.05;;
64188;SDS011;50493;50.970;10.082;2022-09-03T07:02:47;3.10;;;2.08;;
64188;SDS011;50493;50.970;10.082;2022-09-03T07:05:12;3.15;;;2.35;;
64188;SDS011;50493;50.970;10.082;2022-09-03T07:07:38;2.65;;;2.13;;
64188;SDS011;50493;50.970;10.082;2022-09-03T07:10:05;3.47;;;2.20;;
64188;SDS011;50493;50.970;10.082;2022-09-03T07:12:31;3.67;;;2.20;;
64188;SDS011;50493;50.970;10.082;2022-09-03T07:15:01;2.92;;;2.03;;
64188;SDS011;50493;50.970;10.082;2022-09-03T07:17:27;5.50;;;1.95;;
64188;SDS011;50493;50.970;10.082;2022-09-03T07:19:52;3.70;;;1.98;;
64188;SDS011;50493;50.970;10.082;2022-09-03T07:22:18;2.83;;;2.17;;
64188;SDS011;50493;50.970;10.082;2022-09-03T07:24:43;4.93;;;2.25;;
64188;SDS011;50493;50.970;10.082;2022-09-03T07:27:12;3.15;;;1.92;;
64188;SDS011;50493;50.970;10.082;2022-09-03T07:29:37;3.75;;;2.20;;
64188;SDS011;50493;50.970;10.082;2022-09-03T07:32:02;4.38;;;2.05;;
64188;SDS011;50493;50.970;10.082;2022-09-03T07:34:28;3.33;;;2.13;;
64188;SDS011;50493;50.970;10.082;2022-09-03T07:36:54;2.92;;;1.95;;
64188;SDS011;50493;50.970;10.082;2022-09-03T07:39:19;3.22;;;2.08;;
64188;SDS011;50493;50.970;10.082;2022-09-03T07:41:45;2.75;;;2.00;;
64188;SDS011;50493;50.970;10.082;2022-09-03T07:44:12;2.75;;;1.90;;
64188;SDS011;50493;50.970;10.082;2022-09-03T07:46:40;2.80;;;2.20;;
64188;SDS011;50493;50.970;10.082;2022-09-03T07:49:06;3.17;;;2.00;;
64188;SDS011;50493;50.970;10.082;2022-09-03T07:51:32;5.28;;;2.22;;
64188;SDS011;50493;50.970;10.082;2022-09-03T07:54:00;2.40;;;1.92;;
64188;SDS011;50493;50.970;10.082;2022-09-03T07:56:28;2.78;;;1.90;;
64188;SDS011;50493;50.970;10.082;2022-09-03T07:58:56;2.20;;;2.00;;
64188;SDS011;50493;50.970;10.082;2022-09-03T08:01:25;5.03;;;2.00;;
64188;SDS011;50493;50.970;10.082;2022-09-03T08:03:52;3.17;;;1.83;;
64188;SDS011;50493;50.970;10.082;2022-09-03T08:06:20;2.80;;;1.80;;
64188;SDS011;50493;50.970;10.082;2022-09-03T08:08:48;2.10;;;1.90;;
64188;SDS011;50493;50.970;10.082;2022-09-03T08:11:20;2.70;;;2.10;;
64188;SDS011;50493;50.970;10.082;2022-09-03T08:13:47;2.13;;;1.83;;
64188;SDS011;50493;50.970;10.082;2022-09-03T08:16:17;3.65;;;2.00;;
64188;SDS011;50493;50.970;10.082;2022-09-03T08:18:44;2.50;;;1.90;;
64188;SDS011;50493;50.970;10.082;2022-09-03T08:21:12;3.10;;;1.80;;
64188;SDS011;50493;50.970;10.082;2022-09-03T08:23:40;2.63;;;2.00;;
64188;SDS011;50493;50.970;10.082;2022-09-03T08:26:07;3.08;;;1.80;;
64188;SDS011;50493;50.970;10.082;2022-09-03T08:28:33;2.58;;;2.08;;
64188;SDS011;50493;50.970;10.082;2022-09-03T08:31:03;4.28;;;1.98;;
64188;SDS011;50493;50.970;10.082;2022-09-03T08:33:29;2.38;;;1.67;;
64188;SDS011;50493;50.970;10.082;2022-09-03T08:36:03;3.55;;;1.90;;
64188;SDS011;50493;50.970;10.082;2022-09-03T08:38:30;3.85;;;1.80;;
64188;SDS011;50493;50.970;10.082;2022-09-03T08:41:01;2.50;;;2.10;;
64188;SDS011;50493;50.970;10.082;2022-09-03T08:43:28;2.35;;;2.03;;
64188;SDS011;50493;50.970;10.082;2022-09-03T08:45:54;4.07;;;1.90;;
64188;SDS011;50493;50.970;10.082;2022-09-03T08:48:20;2.92;;;1.90;;
64188;SDS011;50493;50.970;10.082;2022-09-03T08:50:48;3.03;;;1.80;;
64188;SDS011;50493;50.970;10.082;2022-09-03T08:53:21;3.03;;;2.08;;
64188;SDS011;50493;50.970;10.082;2022-09-03T08:55:55;6.45;;;1.95;;
64188;SDS011;50493;50.970;10.082;2022-09-03T08:58:35;4.90;;;1.90;;
64188;SDS011;50493;50.970;10.082;2022-09-03T09:01:03;2.63;;;1.92;;
64188;SDS011;50493;50.970;10.082;2022-09-03T09:03:41;2.35;;;1.75;;
64188;SDS011;50493;50.970;10.082;2022-09-03T09:06:14;3.30;;;1.65;;
64188;SDS011;50493;50.970;10.082;2022-09-03T09:08:50;2.33;;;1.88;;
64188;SDS011;50493;50.970;10.082;2022-09-03T09:11:28;3.30;;;1.70;;
64188;SDS011;50493;50.970;10.082;2022-09-03T09:14:06;3.40;;;1.90;;
64188;SDS011;50493;50.970;10.082;2022-09-03T09:16:42;3.38;;;1.95;;
64188;SDS011;50493;50.970;10.082;2022-09-03T09:19:18;2.53;;;1.70;;
64188;SDS011;50493;50.970;10.082;2022-09-03T09:21:55;5.07;;;1.90;;
64188;SDS011;50493;50.970;10.082;2022-09-03T09:24:28;4.30;;;1.80;;
64188;SDS011;50493;50.970;10.082;2022-09-03T09:27:01;4.55;;;2.05;;
64188;SDS011;50493;50.970;10.082;2022-09-03T09:29:31;2.45;;;1.92;;
64188;SDS011;50493;50.970;10.082;2022-09-03T09:31:58;4.28;;;1.70;;
64188;SDS011;50493;50.970;10.082;2022-09-03T09:34:24;2.60;;;1.90;;
64188;SDS011;50493;50.970;10.082;2022-09-03T09:36:50;5.13;;;1.92;;
64188;SDS011;50493;50.970;10.082;2022-09-03T09:39:17;2.88;;;1.88;;
64188;SDS011;50493;50.970;10.082;2022-09-03T09:41:56;4.07;;;2.00;;
64188;SDS011;50493;50.970;10.082;2022-09-03T09:44:23;3.53;;;1.80;;
64188;SDS011;50493;50.970;10.082;2022-09-03T09:46:50;3.13;;;1.90;;
64188;SDS011;50493;50.970;10.082;2022-09-03T09:49:26;2.42;;;1.90;;
64188;SDS011;50493;50.970;10.082;2022-09-03T09:52:03;2.20;;;1.80;;
64188;SDS011;50493;50.970;10.082;2022-09-03T09:54:32;3.17;;;2.00;;
64188;SDS011;50493;50.970;10.082;2022-09-03T09:56:59;2.92;;;1.67;;
64188;SDS011;50493;50.970;10.082;2022-09-03T09:59:26;2.40;;;2.05;;
64188;SDS011;50493;50.970;10.082;2022-09-03T10:02:01;3.08;;;1.65;;
64188;SDS011;50493;50.970;10.082;2022-09-03T10:04:30;3.67;;;2.00;;
64188;SDS011;50493;50.970;10.082;2022-09-03T10:06:57;2.42;;;1.80;;
64188;SDS011;50493;50.970;10.082;2022-09-03T10:09:29;3.55;;;1.80;;
64188;SDS011;50493;50.970;10.082;2022-09-03T10:12:00;2.25;;;1.80;;
64188;SDS011;50493;50.970;10.082;2022-09-03T10:14:34;6.82;;;2.30;;
64188;SDS011;50493;50.970;10.082;2022-09-03T10:17:04;4.72;;;2.00;;
64188;SDS011;50493;50.970;10.082;2022-09-03T10:19:37;3.22;;;1.83;;
64188;SDS011;50493;50.970;10.082;2022-09-03T10:22:08;3.00;;;1.70;;
64188;SDS011;50493;50.970;10.082;2022-09-03T10:24:46;2.75;;;1.90;;
64188;SDS011;50493;50.970;10.082;2022-09-03T10:27:17;4.40;;;2.10;;
64188;SDS011;50493;50.970;10.082;2022-09-03T10:29:43;3.78;;;1.88;;
64188;SDS011;50493;50.970;10.082;2022-09-03T10:32:12;3.05;;;1.98;;
64188;SDS011;50493;50.970;10.082;2022-09-03T10:34:48;3.33;;;1.60;;
64188;SDS011;50493;50.970;10.082;2022-09-03T10:37:22;3.80;;;1.80;;
64188;SDS011;50493;50.970;10.082;2022-09-03T10:42:45;4.53;;;1.90;;
64188;SDS011;50493;50.970;10.082;2022-09-03T10:45:25;4.80;;;2.13;;
64188;SDS011;50493;50.970;10.082;2022-09-03T10:48:01;4.03;;;1.90;;
64188;SDS011;50493;50.970;10.082;2022-09-03T10:50:46;3.83;;;1.60;;
64188;SDS011;50493;50.970;10.082;2022-09-03T10:53:18;2.53;;;1.70;;
64188;SDS011;50493;50.970;10.082;2022-09-03T10:55:58;3.13;;;1.70;;
64188;SDS011;50493;50.970;10.082;2022-09-03T10:58:33;5.07;;;1.92;;
64188;SDS011;50493;50.970;10.082;2022-09-03T11:01:13;3.70;;;2.20;;
64188;SDS011;50493;50.970;10.082;2022-09-03T11:03:46;3.13;;;1.73;;
64188;SDS011;50493;50.970;10.082;2022-09-03T11:06:14;2.53;;;1.73;;
64188;SDS011;50493;50.970;10.082;2022-09-03T11:08:45;2.83;;;1.95;;
64188;SDS011;50493;50.970;10.082;2022-09-03T11:11:18;5.72;;;1.70;;
64188;SDS011;50493;50.970;10.082;2022-09-03T11:13:52;3.75;;;1.60;;
64188;SDS011;50493;50.970;10.082;2022-09-03T11:16:24;2.95;;;1.70;;
64188;SDS011;50493;50.970;10.082;2022-09-03T11:18:54;3.22;;;1.73;;
64188;SDS011;50493;50.970;10.082;2022-09-03T11:21:22;5.43;;;1.92;;
64188;SDS011;50493;50.970;10.082;2022-09-03T11:23:50;2.85;;;1.98;;
64188;SDS011;50493;50.970;10.082;2022-09-03T11:26:18;2.78;;;1.88;;
64188;SDS011;50493;50.970;10.082;2022-09-03T11:28:47;2.33;;;1.75;;
64188;SDS011;50493;50.970;10.082;2022-09-03T11:31:24;2.33;;;1.70;;
64188;SDS011;50493;50.970;10.082;2022-09-03T11:33:57;3.15;;;2.13;;
64188;SDS011;50493;50.970;10.082;2022-09-03T11:36:28;2.58;;;1.77;;
64188;SDS011;50493;50.970;10.082;2022-09-03T11:38:55;2.58;;;1.60;;
64188;SDS011;50493;50.970;10.082;2022-09-03T11:41:23;3.40;;;1.60;;
64188;SDS011;50493;50.970;10.082;2022-09-03T11:43:51;3.15;;;1.83;;
64188;SDS011;50493;50.970;10.082;2022-09-03T11:46:27;3.05;;;1.90;;
64188;SDS011;50493;50.970;10.082;2022-09-03T11:48:54;3.78;;;1.77;;
64188;SDS011;50493;50.970;10.082;2022-09-03T11:51:31;2.22;;;1.70;;
64188;SDS011;50493;50.970;10.082;2022-09-03T11:54:02;2.38;;;1.70;;
64188;SDS011;50493;50.970;10.082;2022-09-03T11:56:30;3.67;;;1.90;;
64188;SDS011;50493;50.970;10.082;2022-09-03T11:59:14;2.25;;;1.50;;
64188;SDS011;50493;50.970;10.082;2022-09-03T12:01:45;2.50;;;1.85;;
64188;SDS011;50493;50.970;10.082;2022-09-03T12:04:16;2.40;;;1.70;;
64188;SDS011;50493;50.970;10.082;2022-09-03T12:06:48;2.72;;;1.67;;
64188;SDS011;50493;50.970;10.082;2022-09-03T12:09:29;2.67;;;1.65;;
64188;SDS011;50493;50.970;10.082;2022-09-03T12:12:08;3.47;;;1.85;;
64188;SDS011;50493;50.970;10.082;2022-09-03T12:14:45;2.05;;;1.48;;
64188;SDS011;50493;50.970;10.082;2022-09-03T12:17:22;3.42;;;1.80;;
64188;SDS011;50493;50.970;10.082;2022-09-03T12:19:55;2.97;;;1.90;;
64188;SDS011;50493;50.970;10.082;2022-09-03T12:22:23;2.67;;;1.58;;
64188;SDS011;50493;50.970;10.082;2022-09-03T12:24:51;2.92;;;1.83;;
64188;SDS011;50493;50.970;10.082;2022-09-03T12:27:17;2.22;;;1.80;;
64188;SDS011;50493;50.970;10.082;2022-09-03T12:29:49;2.90;;;1.60;;
64188;SDS011;50493;50.970;10.082;2022-09-03T12:32:24;3.20;;;1.70;;
64188;SDS011;50493;50.970;10.082;2022-09-03T12:34:51;2.30;;;1.90;;
64188;SDS011;50493;50.970;10.082;2022-09-03T12:37:18;2.60;;;1.90;;
64188;SDS011;50493;50.970;10.082;2022-09-03T12:39:51;2.53;;;1.90;;
64188;SDS011;50493;50.970;10.082;2022-09-03T12:42:19;2.60;;;2.00;;
64188;SDS011;50493;50.970;10.082;2022-09-03T12:44:48;3.75;;;1.70;;
64188;SDS011;50493;50.970;10.082;2022-09-03T12:47:14;5.22;;;2.00;;
64188;SDS011;50493;50.970;10.082;2022-09-03T12:49:46;2.70;;;1.70;;
64188;SDS011;50493;50.970;10.082;2022-09-03T12:52:14;3.63;;;1.70;;
64188;SDS011;50493;50.970;10.082;2022-09-03T12:54:45;2.22;;;1.92;;
64188;SDS011;50493;50.970;10.082;2022-09-03T12:57:19;3.05;;;1.70;;
64188;SDS011;50493;50.970;10.082;2022-09-03T12:59:48;2.13;;;1.90;;
64188;SDS011;50493;50.970;10.082;2022-09-03T13:02:19;3.47;;;2.13;;
64188;SDS011;50493;50.970;10.082;2022-09-03T13:04:50;2.50;;;1.80;;
64188;SDS011;50493;50.970;10.082;2022-09-03T13:07:20;2.67;;;1.50;;
64188;SDS011;50493;50.970;10.082;2022-09-03T13:09:50;4.13;;;1.70;;
64188;SDS011;50493;50.970;10.082;2022-09-03T13:12:19;2.78;;;1.73;;
64188;SDS011;50493;50.970;10.082;2022-09-03T13:14:46;4.88;;;1.77;;
64188;SDS011;50493;50.970;10.082;2022-09-03T13:17:18;2.53;;;1.60;;
64188;SDS011;50493;50.970;10.082;2022-09-03T13:20:00;2.28;;;1.70;;
64188;SDS011;50493;50.970;10.082;2022-09-03T13:22:43;2.28;;;1.67;;
64188;SDS011;50493;50.970;10.082;2022-09-03T13:25:21;2.88;;;1.80;;
64188;SDS011;50493;50.970;10.082;2022-09-03T13:27:54;3.15;;;1.80;;
64188;SDS011;50493;50.970;10.082;2022-09-03T13:30:28;2.50;;;1.90;;
64188;SDS011;50493;50.970;10.082;2022-09-03T13:32:59;2.50;;;1.98;;
64188;SDS011;50493;50.970;10.082;2022-09-03T13:35:33;2.42;;;2.20;;
64188;SDS011;50493;50.970;10.082;2022-09-03T13:38:05;2.75;;;2.20;;
64188;SDS011;50493;50.970;10.082;2022-09-03T13:40:40;2.42;;;2.10;;
64188;SDS011;50493;50.970;10.082;2022-09-03T13:43:15;2.80;;;1.70;;
64188;SDS011;50493;50.970;10.082;2022-09-03T13:45:50;3.38;;;1.60;;
64188;SDS011;50493;50.970;10.082;2022-09-03T13:48:21;4.53;;;2.00;;
64188;SDS011;50493;50.970;10.082;2022-09-03T13:51:12;2.28;;;2.03;;
64188;SDS011;50493;50.970;10.082;2022-09-03T13:53:49;6.57;;;1.95;;
64188;SDS011;50493;50.970;10.082;2022-09-03T13:56:34;2.60;;;1.80;;
64188;SDS011;50493;50.970;10.082;2022-09-03T13:59:10;2.63;;;2.15;;
64188;SDS011;50493;50.970;10.082;2022-09-03T14:01:44;2.75;;;1.90;;
64188;SDS011;50493;50.970;10.082;2022-09-03T14:04:27;1.90;;;1.63;;
64188;SDS011;50493;50.970;10.082;2022-09-03T14:07:00;2.33;;;2.10;;
64188;SDS011;50493;50.970;10.082;2022-09-03T14:09:32;6.53;;;1.90;;
64188;SDS011;50493;50.970;10.082;2022-09-03T14:12:09;2.42;;;1.73;;
64188;SDS011;50493;50.970;10.082;2022-09-03T14:14:43;6.18;;;2.40;;
64188;SDS011;50493;50.970;10.082;2022-09-03T14:17:18;3.67;;;1.90;;
64188;SDS011;50493;50.970;10.082;2022-09-03T14:19:55;9.38;;;2.38;;
64188;SDS011;50493;50.970;10.082;2022-09-03T14:22:28;4.05;;;1.90;;
64188;SDS011;50493;50.970;10.082;2022-09-03T14:25:03;4.93;;;2.20;;
64188;SDS011;50493;50.970;10.082;2022-09-03T14:27:35;6.57;;;2.00;;
64188;SDS011;50493;50.970;10.082;2022-09-03T14:30:03;5.97;;;2.20;;
64188;SDS011;50493;50.970;10.082;2022-09-03T14:32:31;4.97;;;1.90;;
64188;SDS011;50493;50.970;10.082;2022-09-03T14:35:29;3.85;;;2.10;;
64188;SDS011;50493;50.970;10.082;2022-09-03T14:41:25;4.22;;;1.98;;
64188;SDS011;50493;50.970;10.082;2022-09-03T14:44:03;3.85;;;2.17;;
64188;SDS011;50493;50.970;10.082;2022-09-03T14:46:46;2.97;;;1.80;;
64188;SDS011;50493;50.970;10.082;2022-09-03T14:49:44;5.50;;;2.50;;
64188;SDS011;50493;50.970;10.082;2022-09-03T14:52:21;2.90;;;2.15;;
64188;SDS011;50493;50.970;10.082;2022-09-03T14:55:00;3.28;;;2.38;;
64188;SDS011;50493;50.970;10.082;2022-09-03T14:57:52;7.53;;;2.58;;
64188;SDS011;50493;50.970;10.082;2022-09-03T15:00:32;3.10;;;2.03;;
64188;SDS011;50493;50.970;10.082;2022-09-03T15:06:06;3.22;;;2.10;;
64188;SDS011;50493;50.970;10.082;2022-09-03T15:08:42;3.67;;;2.13;;